Terminal Aerodrome Forecast
Issued by NWS Duluth, MN

Home | Current Version | Previous Version | Text Only | Print | Product List | Glossary On
Versions: 1 2 3 4 5 6 7 8 9 10 11 12 13 14
711
FTUS43 KDLH 212330
TAFINL
TAF
KINL 212330Z 2200/2224 VRB03KT 6SM -SHRA SCT035 OVC070
     FM220200 VRB03KT P6SM VCSH BKN070
     FM220500 VRB03KT P6SM SCT080
     FM221400 29011KT P6SM SCT250
     FM221700 31013G22KT P6SM BKN070=

USA.gov is the U.S. government's official web portal to all federal, state and local government web resources and services.